Time;durP1;ratioP1;P1;durP2;ratioP2;P2;SDS_P1;SDS_P2;PMS_P1;PMS_P2;Temp;Humidity;BMP_temperature;BMP_pressure;BME280_temperature;BME280_humidity;BME280_pressure;Samples;Min_cycle;Max_cycle;Signal;HPM_P1;HPM_P2
2022/05/22 00:00:44;;;;;;;5.63;4.80;;;14.30;99.90;;;;;;6029701;23;20448;-74
2022/05/22 00:03:11;;;;;;;4.73;4.33;;;14.30;99.90;;;;;;6031755;23;20532;-73
2022/05/22 00:05:40;;;;;;;5.37;4.97;;;14.20;99.90;;;;;;6031522;23;20471;-73
2022/05/22 00:08:07;;;;;;;5.60;5.10;;;14.20;99.90;;;;;;6032969;23;20451;-73
2022/05/22 00:10:34;;;;;;;5.40;5.00;;;14.20;99.90;;;;;;6032790;23;20472;-73
2022/05/22 00:13:01;;;;;;;5.23;4.83;;;14.10;99.90;;;;;;6027501;23;20520;-73
2022/05/22 00:15:28;;;;;;;5.10;4.63;;;14.10;99.90;;;;;;6029772;23;20444;-73
2022/05/22 00:17:55;;;;;;;4.72;4.32;;;14.00;99.90;;;;;;6033484;23;20444;-73
2022/05/22 00:20:22;;;;;;;4.40;4.10;;;13.90;99.90;;;;;;6032428;23;20193;-73
2022/05/22 00:22:50;;;;;;;5.17;4.67;;;13.80;99.90;;;;;;6028505;23;20475;-73
2022/05/22 00:25:17;;;;;;;5.35;4.85;;;13.80;99.90;;;;;;6027209;23;20519;-73
2022/05/22 00:27:44;;;;;;;5.47;4.97;;;13.80;99.90;;;;;;6031325;23;20217;-73
2022/05/22 00:30:14;;;;;;;4.67;4.27;;;13.70;99.90;;;;;;6029784;23;20532;-73
2022/05/22 00:32:42;;;;;;;6.17;5.03;;;13.70;99.90;;;;;;6031811;23;20870;-73
2022/05/22 00:35:10;;;;;;;5.32;4.75;;;13.60;99.90;;;;;;6033019;23;20436;-73
2022/05/22 00:37:37;;;;;;;5.47;4.97;;;13.50;99.90;;;;;;6030509;23;20854;-73
2022/05/22 00:40:07;;;;;;;5.43;4.90;;;13.50;99.90;;;;;;6028404;23;20240;-73
2022/05/22 00:42:35;;;;;;;5.30;4.80;;;13.40;99.90;;;;;;6030046;23;20212;-73
2022/05/22 00:45:01;;;;;;;4.45;4.13;;;13.40;99.90;;;;;;6029536;23;20601;-74
2022/05/22 00:47:28;;;;;;;4.95;4.60;;;13.30;99.90;;;;;;6029464;23;20192;-73
2022/05/22 00:50:00;;;;;;;8.02;4.88;;;13.30;99.90;;;;;;6026427;23;21654;-73
2022/05/22 00:52:33;;;;;;;5.97;4.65;;;13.20;99.90;;;;;;6023654;23;20260;-74
2022/05/22 00:55:06;;;;;;;4.53;4.13;;;13.20;99.90;;;;;;6032251;23;20211;-73
2022/05/22 00:57:39;;;;;;;6.20;4.57;;;13.20;99.90;;;;;;6021867;23;20200;-73
2022/05/22 01:00:09;;;;;;;5.57;5.07;;;13.20;99.90;;;;;;6031358;23;20814;-73
2022/05/22 01:05:17;;;;;;;5.25;4.70;;;13.10;99.90;;;;;;6029020;23;20197;-73
2022/05/22 01:07:44;;;;;;;5.72;5.32;;;13.00;99.90;;;;;;6029568;23;20195;-73
2022/05/22 01:10:11;;;;;;;5.00;4.60;;;12.90;99.90;;;;;;6029250;23;20688;-73
2022/05/22 01:12:42;;;;;;;5.05;4.53;;;12.80;99.90;;;;;;6027964;23;20279;-73
2022/05/22 01:15:10;;;;;;;5.65;4.88;;;12.70;99.90;;;;;;6030944;23;20212;-73
2022/05/22 01:17:41;;;;;;;5.10;4.70;;;12.70;99.90;;;;;;6029589;23;20193;-73
2022/05/22 01:20:09;;;;;;;4.88;4.45;;;12.60;99.90;;;;;;6030667;23;20220;-73
2022/05/22 01:22:37;;;;;;;4.90;4.47;;;12.50;99.90;;;;;;6031928;23;20221;-73
2022/05/22 01:25:05;;;;;;;4.53;4.13;;;12.50;99.90;;;;;;6023120;23;20200;-73
2022/05/22 01:27:33;;;;;;;5.22;4.65;;;12.50;99.90;;;;;;6029175;23;20200;-73
2022/05/22 01:30:07;;;;;;;4.55;4.20;;;12.40;99.90;;;;;;6030049;23;20219;-73
2022/05/22 01:32:34;;;;;;;4.80;4.50;;;12.40;99.90;;;;;;6031591;23;20875;-73
2022/05/22 01:35:01;;;;;;;5.20;4.70;;;12.40;99.90;;;;;;6030025;23;20274;-73
2022/05/22 01:37:28;;;;;;;4.88;4.40;;;12.30;99.90;;;;;;6031120;23;20278;-73
2022/05/22 01:39:57;;;;;;;5.95;5.40;;;12.30;99.90;;;;;;6025926;23;20292;-73
2022/05/22 01:42:24;;;;;;;5.35;4.90;;;12.30;99.90;;;;;;6026600;23;20562;-73
2022/05/22 01:44:51;;;;;;;6.18;4.78;;;12.20;99.90;;;;;;6026774;23;20192;-73
2022/05/22 01:47:18;;;;;;;6.28;4.82;;;12.20;99.90;;;;;;6027367;23;20258;-73
2022/05/22 01:49:45;;;;;;;6.20;5.70;;;12.20;99.90;;;;;;6027262;23;20294;-73
2022/05/22 01:52:12;;;;;;;5.65;5.25;;;12.20;99.90;;;;;;6025448;23;20235;-73
2022/05/22 01:54:39;;;;;;;6.28;5.88;;;12.10;99.90;;;;;;6027190;23;20189;-73
2022/05/22 01:57:07;;;;;;;6.05;5.57;;;12.20;99.90;;;;;;6028053;23;20642;-73
2022/05/22 01:59:34;;;;;;;7.07;5.63;;;12.10;99.90;;;;;;6028570;23;20196;-73
2022/05/22 02:02:01;;;;;;;6.40;5.80;;;12.10;99.90;;;;;;6029515;23;20218;-73
2022/05/22 02:04:28;;;;;;;6.40;5.60;;;12.10;99.90;;;;;;6029182;23;20212;-73
2022/05/22 02:09:39;;;;;;;6.35;5.85;;;12.00;99.90;;;;;;6023393;23;20314;-73
2022/05/22 02:12:08;;;;;;;7.00;6.30;;;12.00;99.90;;;;;;6026682;23;20215;-73
2022/05/22 02:14:35;;;;;;;7.13;6.63;;;11.90;99.90;;;;;;6021972;23;20694;-73
2022/05/22 02:17:02;;;;;;;7.07;6.47;;;11.90;99.90;;;;;;6026301;23;20275;-73
2022/05/22 02:19:29;;;;;;;7.00;6.40;;;11.80;99.90;;;;;;6029088;23;20199;-73
2022/05/22 02:21:57;;;;;;;7.63;6.90;;;11.80;99.90;;;;;;6027012;23;20743;-73
2022/05/22 02:24:24;;;;;;;6.82;6.22;;;11.80;99.90;;;;;;6026734;23;20187;-73
2022/05/22 02:26:51;;;;;;;7.03;6.47;;;11.70;99.90;;;;;;6027737;23;20607;-73
2022/05/22 02:29:19;;;;;;;6.85;6.25;;;11.70;99.90;;;;;;6029976;23;20231;-73
2022/05/22 02:31:46;;;;;;;7.53;6.82;;;11.60;99.90;;;;;;6029110;23;20261;-73
2022/05/22 02:34:13;;;;;;;7.68;6.88;;;11.60;99.90;;;;;;6031154;23;20188;-73
2022/05/22 02:36:40;;;;;;;6.72;6.05;;;11.60;99.90;;;;;;6031494;23;20228;-73
2022/05/22 02:39:07;;;;;;;7.15;6.60;;;11.60;99.90;;;;;;6028950;23;20204;-73
2022/05/22 02:41:34;;;;;;;6.75;6.07;;;11.70;99.90;;;;;;6031688;23;20219;-73
2022/05/22 02:44:01;;;;;;;7.53;6.78;;;11.60;99.90;;;;;;6027818;23;20228;-73
2022/05/22 02:46:29;;;;;;;7.75;7.03;;;11.60;99.90;;;;;;6031769;23;20269;-73
2022/05/22 02:48:56;;;;;;;7.20;6.70;;;11.70;99.90;;;;;;6029774;23;20233;-73
2022/05/22 02:51:23;;;;;;;7.20;6.50;;;11.70;99.90;;;;;;6031409;23;20228;-73
2022/05/22 02:53:50;;;;;;;7.97;7.40;;;11.60;99.90;;;;;;6030586;23;20579;-72
2022/05/22 02:56:20;;;;;;;7.22;6.63;;;11.60;99.90;;;;;;6030896;23;20666;-72
2022/05/22 02:58:46;;;;;;;7.30;6.72;;;11.60;99.90;;;;;;6030039;23;20232;-72
2022/05/22 03:01:13;;;;;;;7.75;6.60;;;11.60;99.90;;;;;;6029863;23;20618;-72
2022/05/22 03:03:42;;;;;;;6.85;5.47;;;11.60;99.90;;;;;;6031192;23;20199;-73
2022/05/22 03:08:54;;;;;;;5.53;5.18;;;11.50;99.90;;;;;;6030566;23;20192;-72
2022/05/22 03:11:21;;;;;;;6.60;5.43;;;11.50;99.90;;;;;;6028028;23;20693;-73
2022/05/22 03:13:48;;;;;;;6.00;5.50;;;11.40;99.90;;;;;;6030229;23;20197;-72
2022/05/22 03:16:16;;;;;;;5.40;5.00;;;11.30;99.90;;;;;;6030022;23;20189;-73
2022/05/22 03:18:44;;;;;;;5.57;5.18;;;11.30;99.90;;;;;;6021988;23;20202;-73
2022/05/22 03:21:12;;;;;;;5.90;5.40;;;11.30;99.90;;;;;;6028156;23;20629;-73
2022/05/22 03:23:39;;;;;;;5.65;5.15;;;11.30;99.90;;;;;;6030489;23;20198;-72
2022/05/22 03:26:07;;;;;;;5.50;5.10;;;11.20;99.90;;;;;;6022173;23;20187;-73
2022/05/22 03:28:34;;;;;;;5.70;5.30;;;11.20;99.90;;;;;;6030276;23;20700;-72
2022/05/22 03:31:01;;;;;;;5.65;5.15;;;11.10;99.90;;;;;;6031557;23;20576;-72
2022/05/22 03:33:28;;;;;;;5.57;5.07;;;11.10;99.90;;;;;;6026984;23;20242;-72
2022/05/22 03:35:56;;;;;;;6.25;5.75;;;11.10;99.90;;;;;;6030447;23;20633;-73
2022/05/22 03:38:23;;;;;;;6.15;5.75;;;11.10;99.90;;;;;;6031363;23;20222;-72
2022/05/22 03:40:50;;;;;;;5.50;5.00;;;11.10;99.90;;;;;;6027780;23;20221;-72
2022/05/22 03:43:18;;;;;;;6.22;5.63;;;11.10;99.90;;;;;;6031102;23;20202;-72
2022/05/22 03:45:45;;;;;;;6.30;5.70;;;11.10;99.90;;;;;;6030308;23;20279;-73
2022/05/22 03:48:13;;;;;;;6.13;5.53;;;11.10;99.90;;;;;;6025476;23;20193;-72
2022/05/22 03:50:40;;;;;;;6.97;6.28;;;11.10;99.90;;;;;;6029268;23;20222;-73
2022/05/22 03:53:08;;;;;;;6.45;5.95;;;11.10;99.90;;;;;;6030149;23;20598;-72
2022/05/22 03:55:35;;;;;;;6.80;6.20;;;11.10;99.90;;;;;;6026792;23;20197;-72
2022/05/22 03:58:02;;;;;;;7.32;6.57;;;11.20;99.90;;;;;;6030989;23;20193;-73
2022/05/22 04:00:29;;;;;;;7.72;7.13;;;11.10;99.90;;;;;;6025872;23;20196;-72
2022/05/22 04:02:56;;;;;;;6.80;6.30;;;11.20;99.90;;;;;;6029224;23;20206;-72
2022/05/22 04:05:23;;;;;;;6.43;5.82;;;11.20;99.90;;;;;;6024927;23;20276;-72
2022/05/22 04:07:51;;;;;;;7.60;6.90;;;11.20;99.90;;;;;;6030511;23;20193;-72
2022/05/22 04:10:20;;;;;;;6.65;6.00;;;11.20;99.90;;;;;;6030977;23;20273;-72
2022/05/22 04:12:47;;;;;;;7.20;6.47;;;11.20;99.90;;;;;;6031985;23;20662;-72
2022/05/22 04:15:20;;;;;;;6.78;6.28;;;11.20;99.90;;;;;;6023928;23;20190;-72
2022/05/22 04:17:48;;;;;;;5.93;5.43;;;11.30;99.90;;;;;;6030573;23;20300;-72
2022/05/22 04:20:16;;;;;;;6.60;6.00;;;11.20;99.90;;;;;;6032471;23;20194;-72
2022/05/22 04:25:30;;;;;;;6.70;6.18;;;11.30;99.90;;;;;;6030083;23;20641;-72
2022/05/22 04:27:57;;;;;;;6.53;6.03;;;11.30;99.90;;;;;;6029268;23;20641;-72
2022/05/22 04:30:24;;;;;;;6.28;5.70;;;11.30;99.90;;;;;;6030958;23;20226;-72
2022/05/22 04:32:53;;;;;;;6.00;5.50;;;11.30;99.90;;;;;;6029826;23;20200;-72
2022/05/22 04:35:21;;;;;;;6.57;6.13;;;11.40;99.90;;;;;;6030897;23;20194;-72
2022/05/22 04:37:49;;;;;;;6.22;5.70;;;11.40;99.90;;;;;;6027638;23;20190;-72
2022/05/22 04:40:16;;;;;;;6.53;6.03;;;11.50;99.90;;;;;;6032876;23;20275;-72
2022/05/22 04:42:44;;;;;;;6.72;6.22;;;11.50;99.90;;;;;;6030236;23;20529;-72
2022/05/22 04:45:12;;;;;;;6.25;5.65;;;11.50;99.90;;;;;;6026418;23;20219;-72
2022/05/22 04:47:41;;;;;;;6.90;6.30;;;11.60;99.90;;;;;;6030779;23;20203;-72
2022/05/22 04:50:09;;;;;;;6.53;5.93;;;11.70;99.90;;;;;;6028519;23;20295;-72
2022/05/22 04:52:37;;;;;;;5.97;5.47;;;11.70;99.90;;;;;;6027550;23;20250;-72
2022/05/22 04:55:08;;;;;;;5.95;5.35;;;11.80;99.90;;;;;;6028081;23;20643;-72
2022/05/22 04:57:35;;;;;;;5.85;5.35;;;11.90;99.90;;;;;;6031469;23;20219;-72
2022/05/22 05:00:04;;;;;;;6.35;5.85;;;11.90;99.90;;;;;;6030946;23;20210;-72
2022/05/22 05:02:32;;;;;;;6.00;5.57;;;12.00;99.90;;;;;;6030288;23;20238;-72
2022/05/22 05:05:00;;;;;;;6.00;5.60;;;12.00;99.90;;;;;;6031107;23;20278;-72
2022/05/22 05:07:27;;;;;;;5.28;4.88;;;12.10;99.90;;;;;;6032114;23;20353;-72
2022/05/22 05:09:54;;;;;;;5.80;5.30;;;12.20;99.90;;;;;;6032321;23;20250;-73
2022/05/22 05:12:21;;;;;;;5.85;5.45;;;12.30;99.90;;;;;;6030661;23;20262;-73
2022/05/22 05:14:48;;;;;;;5.25;4.75;;;12.40;99.90;;;;;;6030137;23;20217;-73
2022/05/22 05:17:18;;;;;;;5.20;4.70;;;12.50;99.90;;;;;;6031602;23;20202;-73
2022/05/22 05:19:45;;;;;;;5.20;4.80;;;12.50;99.90;;;;;;6030184;23;20742;-72
2022/05/22 05:22:13;;;;;;;5.07;4.68;;;12.60;99.90;;;;;;6030382;23;20256;-72
2022/05/22 05:24:40;;;;;;;4.78;4.38;;;12.70;99.90;;;;;;6028157;23;20200;-73
2022/05/22 05:27:07;;;;;;;4.75;4.38;;;12.80;99.90;;;;;;6024614;23;20193;-72
2022/05/22 05:29:33;;;;;;;5.15;4.05;;;12.80;99.90;;;;;;6030375;23;20197;-73
2022/05/22 05:32:00;;;;;;;4.95;4.55;;;13.00;99.90;;;;;;6028933;23;20272;-72
2022/05/22 05:34:29;;;;;;;4.70;4.30;;;13.10;99.90;;;;;;6030430;23;20201;-72
2022/05/22 05:36:56;;;;;;;5.27;4.77;;;13.10;99.90;;;;;;6028137;23;20193;-72
2022/05/22 05:39:23;;;;;;;4.70;4.30;;;13.20;99.90;;;;;;6024141;23;20463;-72
2022/05/22 05:41:50;;;;;;;4.28;3.92;;;13.40;99.90;;;;;;6031994;23;20743;-73
2022/05/22 05:44:17;;;;;;;4.55;4.15;;;13.50;99.90;;;;;;6027057;23;20203;-73
2022/05/22 05:46:46;;;;;;;4.60;3.92;;;13.60;99.90;;;;;;6027886;23;20193;-73
2022/05/22 05:49:13;;;;;;;4.13;3.80;;;13.60;99.90;;;;;;6016883;23;20204;-73
2022/05/22 05:51:41;;;;;;;3.90;3.60;;;13.70;99.90;;;;;;6031521;23;20489;-74
2022/05/22 05:54:08;;;;;;;5.00;3.30;;;13.80;99.90;;;;;;6031661;23;20191;-80
2022/05/22 05:56:38;;;;;;;4.17;3.87;;;13.80;99.90;;;;;;6023029;23;20269;-73
2022/05/22 05:59:05;;;;;;;4.47;3.60;;;13.90;99.90;;;;;;6030618;23;20519;-74
2022/05/22 06:01:33;;;;;;;4.10;3.70;;;14.00;99.90;;;;;;6028608;23;20472;-75
2022/05/22 06:04:01;;;;;;;3.83;3.53;;;14.00;99.90;;;;;;6025118;23;20452;-75
2022/05/22 06:06:28;;;;;;;3.83;3.53;;;14.10;99.90;;;;;;6019141;23;20448;-75
2022/05/22 06:08:56;;;;;;;4.60;4.20;;;14.10;99.90;;;;;;6015479;23;20523;-75
2022/05/22 06:11:24;;;;;;;5.93;3.80;;;14.20;99.90;;;;;;6027774;23;20468;-73
2022/05/22 06:13:51;;;;;;;4.20;3.73;;;14.20;99.90;;;;;;6023787;23;20986;-74
2022/05/22 06:16:19;;;;;;;4.67;4.27;;;14.30;99.90;;;;;;6030548;23;20507;-74
2022/05/22 06:18:45;;;;;;;4.00;3.60;;;14.40;99.90;;;;;;6031594;23;20432;-75
2022/05/22 06:21:16;;;;;;;3.90;3.60;;;14.50;99.90;;;;;;6030482;23;20483;-75
2022/05/22 06:23:44;;;;;;;3.53;3.23;;;14.60;99.90;;;;;;6029795;23;20436;-74
2022/05/22 06:26:18;;;;;;;3.97;3.60;;;14.60;99.90;;;;;;6029772;23;20835;-74
2022/05/22 06:28:46;;;;;;;4.00;3.70;;;14.60;99.90;;;;;;6028095;23;20455;-75
2022/05/22 06:31:14;;;;;;;4.10;3.70;;;14.70;99.90;;;;;;6028649;23;20518;-76
2022/05/22 06:33:41;;;;;;;7.80;3.90;;;14.80;99.90;;;;;;6031289;23;20429;-75
2022/05/22 06:36:09;;;;;;;4.10;3.70;;;14.90;99.90;;;;;;6026028;23;20994;-75
2022/05/22 06:41:23;;;;;;;3.93;3.63;;;15.30;99.90;;;;;;6029511;23;20499;-75
2022/05/22 06:43:51;;;;;;;3.20;3.00;;;15.50;99.90;;;;;;6032645;23;20463;-75
2022/05/22 06:46:19;;;;;;;3.53;3.23;;;15.60;99.90;;;;;;6029594;23;20928;-75
2022/05/22 06:48:46;;;;;;;3.70;3.40;;;15.80;99.90;;;;;;6030660;23;20937;-71
2022/05/22 06:51:13;;;;;;;3.63;3.43;;;16.00;99.90;;;;;;6028674;23;20482;-72
2022/05/22 06:53:40;;;;;;;3.93;3.63;;;16.10;99.90;;;;;;6031144;23;20437;-75
2022/05/22 06:56:07;;;;;;;3.67;3.37;;;16.40;99.90;;;;;;6026928;23;20436;-75
2022/05/22 06:58:36;;;;;;;3.50;3.20;;;16.50;99.90;;;;;;6024223;23;20613;-73
2022/05/22 07:01:03;;;;;;;3.87;3.50;;;16.70;99.90;;;;;;6025492;23;20980;-74
2022/05/22 07:03:30;;;;;;;3.43;3.13;;;16.80;99.90;;;;;;6026475;23;20454;-75
2022/05/22 07:05:57;;;;;;;3.40;3.20;;;17.00;99.90;;;;;;6011682;23;20447;-74
2022/05/22 07:08:24;;;;;;;3.27;2.90;;;17.20;99.90;;;;;;6024383;23;20515;-73
2022/05/22 07:13:37;;;;;;;3.27;3.00;;;17.70;99.90;;;;;;6025169;23;20519;-73
2022/05/22 07:16:06;;;;;;;3.00;2.80;;;18.00;99.90;;;;;;6024744;23;20464;-73
2022/05/22 07:18:33;;;;;;;3.07;2.87;;;18.20;99.90;;;;;;6029263;23;20464;-71
2022/05/22 07:21:00;;;;;;;3.30;3.00;;;18.40;99.90;;;;;;6022390;23;20477;-71
2022/05/22 07:23:27;;;;;;;2.57;2.20;;;18.70;99.90;;;;;;6030578;23;21060;-72
2022/05/22 07:25:54;;;;;;;3.00;2.70;;;19.00;99.90;;;;;;6028266;23;20529;-73
2022/05/22 07:28:21;;;;;;;3.00;2.67;;;19.30;99.90;;;;;;6031851;23;20436;-75
2022/05/22 07:30:50;;;;;;;2.93;2.63;;;19.90;99.90;;;;;;6028513;23;20494;-73
2022/05/22 07:33:17;;;;;;;3.27;2.73;;;20.70;99.90;;;;;;6029930;23;20828;-74
2022/05/22 07:35:54;;;;;;;2.27;2.17;;;21.50;99.90;;;;;;6029519;23;20448;-71
2022/05/22 07:38:22;;;;;;;2.40;2.20;;;22.40;99.90;;;;;;6030482;23;20482;-70
2022/05/22 07:40:49;;;;;;;2.60;2.07;;;23.00;99.90;;;;;;6031157;23;20463;-71
2022/05/22 07:43:16;;;;;;;2.30;2.10;;;23.30;99.90;;;;;;6029426;23;20440;-72
2022/05/22 07:45:43;;;;;;;2.97;2.63;;;23.70;99.90;;;;;;6030388;23;20456;-71
2022/05/22 07:48:13;;;;;;;2.57;2.30;;;24.00;99.90;;;;;;6022587;23;20535;-72
2022/05/22 07:50:40;;;;;;;3.20;2.60;;;24.40;99.20;;;;;;6020986;23;20485;-74
2022/05/22 07:53:08;;;;;;;2.67;2.47;;;24.30;99.10;;;;;;6027306;23;20487;-71
2022/05/22 07:55:35;;;;;;;2.57;2.27;;;24.40;98.40;;;;;;6020198;23;20459;-73
2022/05/22 07:58:02;;;;;;;2.60;2.40;;;24.40;96.90;;;;;;6028076;23;20447;-74
2022/05/22 08:00:29;;;;;;;3.57;2.10;;;24.60;96.60;;;;;;6025837;23;20456;-74
2022/05/22 08:02:56;;;;;;;3.80;2.23;;;24.70;96.20;;;;;;6008505;23;20462;-74
2022/05/22 08:05:24;;;;;;;2.30;1.80;;;24.80;94.60;;;;;;6025017;23;20439;-73
2022/05/22 08:07:52;;;;;;;2.23;2.03;;;24.90;94.90;;;;;;6016410;23;20801;-74
2022/05/22 08:10:19;;;;;;;3.00;2.60;;;25.20;94.90;;;;;;6030757;23;20566;-75
2022/05/22 08:12:48;;;;;;;2.33;2.00;;;25.50;94.50;;;;;;6030774;23;20618;-74
2022/05/22 08:15:18;;;;;;;2.47;2.07;;;25.80;92.80;;;;;;6030732;23;20467;-76
2022/05/22 08:17:46;;;;;;;2.00;1.90;;;25.90;93.00;;;;;;6025493;23;20444;-74
2022/05/22 08:20:15;;;;;;;2.60;2.40;;;25.90;91.90;;;;;;6027898;23;20634;-74
2022/05/22 08:22:45;;;;;;;2.33;2.10;;;26.30;91.30;;;;;;6025391;23;20443;-73
2022/05/22 08:25:13;;;;;;;2.07;1.87;;;26.60;91.30;;;;;;6018776;23;20440;-74
2022/05/22 08:27:40;;;;;;;3.00;2.07;;;26.80;90.10;;;;;;6025419;23;20745;-74
2022/05/22 08:30:09;;;;;;;2.97;2.47;;;26.70;88.10;;;;;;6022092;23;20564;-74
2022/05/22 08:32:37;;;;;;;2.40;2.00;;;26.20;88.90;;;;;;6020653;23;20476;-73
2022/05/22 08:35:05;;;;;;;1.70;1.60;;;26.40;87.30;;;;;;6024652;23;20850;-75
2022/05/22 08:37:33;;;;;;;3.00;1.60;;;26.30;86.00;;;;;;6022342;23;20433;-76
2022/05/22 08:40:02;;;;;;;2.60;2.00;;;26.50;86.20;;;;;;6025726;23;20467;-76
2022/05/22 08:42:36;;;;;;;2.33;1.87;;;27.10;84.60;;;;;;6029642;23;20440;-76
2022/05/22 08:45:10;;;;;;;1.57;1.47;;;27.30;81.90;;;;;;6021124;23;20523;-76
2022/05/22 08:47:43;;;;;;;1.50;1.40;;;27.20;79.80;;;;;;6025709;23;20440;-75
2022/05/22 08:50:13;;;;;;;2.03;1.60;;;26.90;80.00;;;;;;6026529;23;20547;-71
2022/05/22 08:52:51;;;;;;;1.90;1.80;;;26.60;80.50;;;;;;6027269;23;20475;-71
2022/05/22 08:55:23;;;;;;;1.60;1.43;;;26.50;78.90;;;;;;6022740;23;20780;-74
2022/05/22 09:00:41;;;;;;;1.73;1.53;;;27.10;75.10;;;;;;6023525;23;20454;-78
2022/05/22 09:03:15;;;;;;;1.70;1.30;;;26.90;75.40;;;;;;6014414;23;20475;-76
2022/05/22 09:05:42;;;;;;;1.70;1.50;;;26.90;77.40;;;;;;6017818;23;20436;-76
2022/05/22 09:10:04;;;;;;;2.33;1.60;;;27.50;74.30;;;;;;6088693;23;21085;-87
2022/05/22 09:12:59;;;;;;;2.27;1.87;;;27.60;74.10;;;;;;6086908;23;20452;-77
2022/05/22 09:15:34;;;;;;;1.90;1.70;;;27.20;75.80;;;;;;6079847;23;20994;-77
2022/05/22 09:18:05;;;;;;;1.90;1.80;;;27.10;75.90;;;;;;6089256;23;20466;-77
2022/05/22 09:20:42;;;;;;;2.03;1.80;;;27.30;74.70;;;;;;6097417;23;20462;-77
2022/05/22 09:23:25;;;;;;;1.53;1.43;;;27.70;73.80;;;;;;6091489;23;20476;-76
2022/05/22 09:26:01;;;;;;;1.93;1.80;;;28.00;73.70;;;;;;6084906;23;20438;-77
2022/05/22 09:28:37;;;;;;;1.70;1.60;;;28.10;73.90;;;;;;6095521;23;20974;-77
2022/05/22 09:31:11;;;;;;;3.60;2.23;;;28.50;72.30;;;;;;6096236;23;21039;-77
2022/05/22 09:33:44;;;;;;;2.80;1.90;;;28.30;70.70;;;;;;6094809;23;20453;-76
2022/05/22 09:36:22;;;;;;;2.27;1.70;;;28.20;70.40;;;;;;6094800;23;20800;-76
2022/05/22 09:39:09;;;;;;;1.70;1.60;;;27.90;71.70;;;;;;6095913;23;20433;-78
2022/05/22 09:41:50;;;;;;;1.87;1.60;;;28.00;71.10;;;;;;6097779;23;20563;-77
2022/05/22 09:44:36;;;;;;;1.83;1.57;;;28.60;70.20;;;;;;6097131;23;20550;-77
2022/05/22 09:47:25;;;;;;;1.63;1.40;;;28.80;67.50;;;;;;6084217;23;20929;-77
2022/05/22 09:50:20;;;;;;;3.10;1.57;;;28.70;66.50;;;;;;6088033;23;20502;-78
2022/05/22 09:52:54;;;;;;;5.57;1.40;;;29.00;67.40;;;;;;6088295;23;20452;-77
2022/05/22 09:55:33;;;;;;;2.93;1.80;;;29.40;62.40;;;;;;6085874;23;20438;-77
2022/05/22 09:58:35;;;;;;;2.00;1.80;;;29.70;63.70;;;;;;6087766;23;20441;-77
2022/05/22 10:01:10;;;;;;;1.67;1.20;;;30.60;62.70;;;;;;6098338;23;20453;-77
2022/05/22 10:03:51;;;;;;;2.10;1.73;;;30.70;64.20;;;;;;6090737;23;20453;-77
2022/05/22 10:06:32;;;;;;;2.50;1.60;;;31.10;60.10;;;;;;6093801;23;20445;-77
2022/05/22 10:09:09;;;;;;;2.87;1.63;;;30.70;62.40;;;;;;6096049;23;20990;-77
2022/05/22 10:11:41;;;;;;;2.40;1.90;;;31.00;61.40;;;;;;6096763;23;20456;-77
2022/05/22 10:14:27;;;;;;;2.03;1.83;;;31.10;62.50;;;;;;6094438;23;20484;-77
2022/05/22 10:17:09;;;;;;;1.53;1.43;;;31.70;61.80;;;;;;6094135;23;20790;-77
2022/05/22 10:19:47;;;;;;;1.90;1.80;;;32.30;59.50;;;;;;6096468;23;20996;-77
2022/05/22 10:22:21;;;;;;;1.80;1.70;;;32.80;59.10;;;;;;6088568;23;20431;-77
2022/05/22 10:25:04;;;;;;;1.87;1.77;;;32.60;58.30;;;;;;6096448;23;20517;-77
2022/05/22 10:27:56;;;;;;;2.27;2.07;;;32.20;58.20;;;;;;6094607;23;20529;-77
2022/05/22 10:30:30;;;;;;;2.20;2.00;;;31.70;57.90;;;;;;6087220;23;21043;-77
2022/05/22 10:33:01;;;;;;;1.97;1.77;;;30.90;59.30;;;;;;6091925;23;20450;-77
2022/05/22 10:35:33;;;;;;;2.23;1.80;;;30.60;60.60;;;;;;6087737;23;20458;-77
2022/05/22 10:38:05;;;;;;;2.97;1.80;;;30.60;60.80;;;;;;6099256;23;20462;-77
2022/05/22 10:42:45;;;;;;;3.20;2.20;;;30.90;59.50;;;;;;6107163;23;20463;-77
2022/05/22 10:43:23;;;;;;;3.03;1.73;;;31.10;60.00;;;;;;6102599;23;20492;-77
2022/05/22 10:45:52;;;;;;;1.70;1.40;;;31.70;58.60;;;;;;6094658;23;20442;-77
2022/05/22 10:48:23;;;;;;;3.07;1.70;;;31.90;58.20;;;;;;6091171;23;20890;-78
2022/05/22 10:50:55;;;;;;;1.93;1.80;;;31.70;58.00;;;;;;6091848;23;20515;-77
2022/05/22 10:53:32;;;;;;;2.80;1.70;;;31.90;57.90;;;;;;6089661;23;20442;-78
2022/05/22 10:56:05;;;;;;;2.67;1.93;;;32.10;57.90;;;;;;6079573;23;20521;-78
2022/05/22 10:58:33;;;;;;;2.27;2.07;;;32.70;57.00;;;;;;6090504;23;20486;-78
2022/05/22 11:01:03;;;;;;;2.30;1.67;;;33.10;57.00;;;;;;6079097;23;20458;-78
2022/05/22 11:03:33;;;;;;;2.70;1.40;;;33.20;55.60;;;;;;6081625;23;20542;-78
2022/05/22 11:06:03;;;;;;;1.97;1.67;;;33.50;55.50;;;;;;6088071;23;20477;-78
2022/05/22 11:08:33;;;;;;;2.00;1.33;;;32.60;54.90;;;;;;6090250;23;20466;-78
2022/05/22 11:11:15;;;;;;;1.90;1.50;;;32.80;55.40;;;;;;6089460;23;20468;-78
2022/05/22 11:13:42;;;;;;;1.60;1.50;;;33.10;55.00;;;;;;6083053;23;20527;-78
2022/05/22 11:16:16;;;;;;;2.43;1.60;;;33.10;54.70;;;;;;6089394;23;20446;-78
2022/05/22 11:18:44;;;;;;;1.73;1.63;;;33.10;54.40;;;;;;6089788;23;20444;-78
2022/05/22 11:21:22;;;;;;;1.87;1.73;;;33.40;53.80;;;;;;6088540;23;20476;-78
2022/05/22 11:24:00;;;;;;;7.37;6.77;;;33.20;54.00;;;;;;6086596;23;20531;-78
2022/05/22 11:26:37;;;;;;;2.20;2.00;;;33.30;54.90;;;;;;6075806;23;20438;-77
2022/05/22 11:29:17;;;;;;;2.60;1.93;;;33.60;54.20;;;;;;6088527;23;20628;-77
2022/05/22 11:31:55;;;;;;;2.40;1.90;;;33.80;51.90;;;;;;6083649;23;20435;-78
2022/05/22 11:34:49;;;;;;;2.27;1.60;;;33.50;53.50;;;;;;6091225;23;20531;-78
2022/05/22 11:37:26;;;;;;;2.13;1.80;;;33.30;51.80;;;;;;6088769;23;20473;-77
2022/05/22 11:40:05;;;;;;;2.00;1.63;;;33.10;53.00;;;;;;6088744;23;20556;-78
2022/05/22 11:42:35;;;;;;;2.50;1.47;;;32.40;52.30;;;;;;6091376;23;21028;-78
2022/05/22 11:45:39;;;;;;;1.97;1.70;;;32.60;53.20;;;;;;6088153;23;20443;-78
2022/05/22 11:48:24;;;;;;;1.73;1.50;;;32.60;54.10;;;;;;6088270;23;20442;-78
2022/05/22 11:51:08;;;;;;;2.50;1.80;;;32.80;53.20;;;;;;6088341;23;20497;-78
2022/05/22 11:54:02;;;;;;;2.10;1.50;;;33.00;51.90;;;;;;6080668;23;20480;-78
2022/05/22 11:56:39;;;;;;;2.23;1.67;;;33.20;52.00;;;;;;6079549;23;20435;-78
2022/05/22 11:59:27;;;;;;;3.27;2.20;;;33.10;52.00;;;;;;6088637;23;20446;-78
2022/05/22 12:02:07;;;;;;;3.47;1.77;;;32.80;51.60;;;;;;6085152;23;20439;-78
2022/05/22 12:04:57;;;;;;;1.90;1.80;;;32.50;51.60;;;;;;6079150;23;20469;-78
2022/05/22 12:07:45;;;;;;;2.33;1.50;;;32.60;52.20;;;;;;6077268;23;20439;-78
2022/05/22 12:10:18;;;;;;;1.90;1.40;;;32.90;51.60;;;;;;6086200;23;20553;-78
2022/05/22 12:12:53;;;;;;;3.53;3.27;;;33.40;51.50;;;;;;6081750;23;20449;-78
2022/05/22 12:15:34;;;;;;;2.87;2.67;;;33.90;50.00;;;;;;6083191;23;20495;-78
2022/05/22 12:18:17;;;;;;;2.00;1.47;;;33.80;49.60;;;;;;6088217;23;20434;-78
2022/05/22 12:20:49;;;;;;;1.40;1.30;;;33.70;50.10;;;;;;6082907;23;20490;-78
2022/05/22 12:23:22;;;;;;;1.60;1.50;;;33.50;49.90;;;;;;6082586;23;20782;-77
2022/05/22 12:25:54;;;;;;;1.47;1.37;;;33.50;49.80;;;;;;6080199;23;20520;-78
2022/05/22 12:28:46;;;;;;;1.63;1.37;;;33.50;49.50;;;;;;6076931;23;20467;-77
2022/05/22 13:58:16;;;;;;;1.83;1.60;;;37.40;40.60;;;;;;6180416;22;20572;-74
2022/05/22 14:00:49;;;;;;;2.70;1.43;;;36.60;42.10;;;;;;6168496;23;20534;-74
2022/05/22 14:03:25;;;;;;;1.53;1.37;;;36.30;41.80;;;;;;6164340;23;20435;-74
2022/05/22 14:05:55;;;;;;;2.40;1.23;;;35.40;43.00;;;;;;6172922;23;20454;-73
2022/05/22 14:08:25;;;;;;;1.60;1.30;;;35.10;43.90;;;;;;6149837;23;20443;-75
2022/05/22 14:10:58;;;;;;;1.90;1.40;;;35.10;44.00;;;;;;6155792;23;20452;-74
2022/05/22 14:13:29;;;;;;;1.63;1.53;;;35.30;44.20;;;;;;6154285;23;20431;-75
2022/05/22 14:16:00;;;;;;;1.40;1.30;;;35.30;43.40;;;;;;6156370;23;20439;-75
2022/05/22 14:18:30;;;;;;;1.60;1.50;;;36.40;42.50;;;;;;6151224;23;20466;-75
2022/05/22 14:21:01;;;;;;;1.70;1.33;;;37.80;41.30;;;;;;6165303;23;20856;-75
2022/05/22 14:23:30;;;;;;;2.00;1.50;;;38.90;40.10;;;;;;6155457;23;20440;-75
2022/05/22 14:26:00;;;;;;;1.50;1.40;;;39.10;40.30;;;;;;6159673;23;21130;-76
2022/05/22 14:28:32;;;;;;;1.93;1.30;;;40.00;39.60;;;;;;6159705;23;20546;-79
2022/05/22 14:30:59;;;;;;;1.43;1.33;;;39.80;37.50;;;;;;6165170;23;20435;-76
2022/05/22 14:33:27;;;;;;;1.97;1.40;;;40.70;38.00;;;;;;6171580;23;20517;-75
2022/05/22 14:36:06;;;;;;;1.80;1.20;;;40.80;38.00;;;;;;6165773;23;20514;-75
2022/05/22 14:38:36;;;;;;;1.40;1.23;;;41.20;38.00;;;;;;6168057;23;20814;-75
2022/05/22 14:41:08;;;;;;;1.43;1.33;;;40.30;38.40;;;;;;6166059;23;20442;-76
2022/05/22 14:43:39;;;;;;;2.30;1.83;;;39.20;38.60;;;;;;6161373;23;20462;-74
2022/05/22 14:46:08;;;;;;;2.17;1.60;;;37.80;39.70;;;;;;6157535;23;21526;-74
2022/05/22 14:48:40;;;;;;;1.67;1.53;;;36.50;41.00;;;;;;6179804;23;21103;-74
2022/05/22 14:51:18;;;;;;;1.70;1.50;;;35.60;42.10;;;;;;6161826;23;20439;-73
2022/05/22 14:53:47;;;;;;;1.70;1.50;;;35.40;43.00;;;;;;6173485;23;20477;-74